Time;durP1;ratioP1;P1;durP2;ratioP2;P2;SDS_P1;SDS_P2;PMS_P1;PMS_P2;Temp;Humidity;BMP_temperature;BMP_pressure;BME280_temperature;BME280_humidity;BME280_pressure;Samples;Min_cycle;Max_cycle;Signal;HPM_P1;HPM_P2
2021/01/22 00:01:48;;;;;;;1.38;0.57;;;8.30;72.90;;;;;;5068232;28;20066;-61
2021/01/22 00:04:14;;;;;;;1.38;0.50;;;8.40;73.00;;;;;;5067800;28;20044;-62
2021/01/22 00:06:40;;;;;;;2.08;0.77;;;8.30;73.00;;;;;;5069839;28;20076;-62
2021/01/22 00:09:06;;;;;;;3.00;0.70;;;8.30;73.20;;;;;;5068963;28;20324;-62
2021/01/22 00:11:31;;;;;;;2.25;0.80;;;8.30;73.50;;;;;;5067994;28;20089;-62
2021/01/22 00:13:57;;;;;;;1.50;0.70;;;8.30;73.60;;;;;;5069780;28;20107;-62
2021/01/22 00:16:23;;;;;;;2.03;0.98;;;8.30;73.70;;;;;;5070029;28;20102;-62
2021/01/22 00:18:49;;;;;;;2.75;0.88;;;8.30;73.50;;;;;;5068611;28;20040;-62
2021/01/22 00:21:14;;;;;;;2.47;0.82;;;8.20;73.40;;;;;;5070130;28;20181;-61
2021/01/22 00:23:40;;;;;;;3.03;0.65;;;8.30;73.30;;;;;;5070563;28;20069;-61
2021/01/22 00:26:06;;;;;;;1.70;0.57;;;8.20;73.20;;;;;;5070274;28;20492;-62
2021/01/22 00:28:33;;;;;;;2.42;0.57;;;8.10;73.40;;;;;;5069587;28;20052;-62
2021/01/22 00:31:00;;;;;;;2.70;0.55;;;8.10;73.20;;;;;;5069362;28;20031;-63
2021/01/22 00:33:25;;;;;;;1.27;0.50;;;8.10;72.90;;;;;;5069012;28;20089;-62
2021/01/22 00:35:52;;;;;;;0.95;0.38;;;8.10;72.60;;;;;;5070861;28;21025;-62
2021/01/22 00:38:17;;;;;;;1.10;0.30;;;8.10;72.30;;;;;;5068836;28;20408;-59
2021/01/22 00:40:43;;;;;;;1.58;0.30;;;8.10;72.50;;;;;;5068259;28;20032;-59
2021/01/22 00:43:09;;;;;;;2.55;0.50;;;8.00;72.40;;;;;;5070832;28;20678;-59
2021/01/22 00:45:35;;;;;;;2.05;0.55;;;8.10;72.40;;;;;;5069898;28;20484;-59
2021/01/22 00:48:00;;;;;;;0.85;0.45;;;8.10;72.30;;;;;;5068720;28;20468;-59
2021/01/22 00:50:26;;;;;;;1.05;0.40;;;8.00;72.30;;;;;;5070285;28;20237;-59
2021/01/22 00:52:52;;;;;;;1.35;0.22;;;8.00;72.50;;;;;;5069276;28;20052;-62
2021/01/22 00:55:21;;;;;;;0.95;0.20;;;8.00;72.40;;;;;;5068927;28;20032;-62
2021/01/22 00:57:46;;;;;;;1.40;0.20;;;8.00;72.50;;;;;;5057852;28;20123;-62
2021/01/22 01:00:13;;;;;;;1.10;0.32;;;7.90;72.40;;;;;;5068344;28;20470;-62
2021/01/22 01:02:39;;;;;;;0.63;0.20;;;7.90;72.50;;;;;;5066763;28;20041;-62
2021/01/22 01:05:06;;;;;;;0.35;0.20;;;7.90;72.50;;;;;;5068589;28;20052;-62
2021/01/22 01:07:32;;;;;;;0.63;0.23;;;8.00;72.70;;;;;;5071530;28;20063;-62
2021/01/22 01:09:58;;;;;;;2.50;0.73;;;7.90;72.60;;;;;;5057081;28;20150;-60
2021/01/22 01:12:24;;;;;;;1.13;0.30;;;7.90;72.70;;;;;;5068911;28;20038;-61
2021/01/22 01:14:49;;;;;;;0.60;0.35;;;7.90;72.80;;;;;;5069504;28;20068;-60
2021/01/22 01:17:15;;;;;;;1.10;0.50;;;7.90;72.80;;;;;;5068432;28;20051;-57
2021/01/22 01:19:41;;;;;;;1.48;0.55;;;7.90;72.70;;;;;;5068830;28;20114;-57
2021/01/22 01:22:07;;;;;;;1.80;0.60;;;7.90;72.60;;;;;;5069773;28;20036;-58
2021/01/22 01:24:32;;;;;;;2.45;0.70;;;7.90;72.70;;;;;;5069046;28;20037;-57
2021/01/22 01:26:58;;;;;;;4.55;0.70;;;7.90;72.70;;;;;;5068669;28;20028;-57
2021/01/22 01:29:24;;;;;;;2.10;0.93;;;7.90;72.70;;;;;;5069360;28;20536;-57
2021/01/22 01:31:50;;;;;;;1.25;0.68;;;7.90;72.70;;;;;;5068395;28;20036;-57
2021/01/22 01:34:16;;;;;;;5.10;1.10;;;7.90;73.20;;;;;;5067725;28;20044;-57
2021/01/22 01:36:41;;;;;;;1.58;0.50;;;7.90;72.60;;;;;;5058883;28;20054;-57
2021/01/22 01:39:07;;;;;;;1.42;0.60;;;7.90;72.30;;;;;;5057292;28;20106;-57
2021/01/22 01:41:33;;;;;;;1.65;0.40;;;7.90;72.70;;;;;;5069979;28;20399;-57
2021/01/22 01:43:59;;;;;;;1.23;0.38;;;7.80;72.10;;;;;;5058485;28;22228;-57
2021/01/22 01:46:24;;;;;;;0.82;0.40;;;7.80;72.10;;;;;;5068525;28;20475;-58
2021/01/22 01:48:50;;;;;;;2.55;0.90;;;7.90;72.20;;;;;;5069904;28;20040;-58
2021/01/22 01:51:16;;;;;;;0.75;0.30;;;7.90;72.30;;;;;;5070495;28;20062;-57
2021/01/22 01:53:42;;;;;;;2.22;0.43;;;7.80;72.20;;;;;;5072395;28;20041;-60
2021/01/22 01:56:08;;;;;;;3.13;0.80;;;7.80;72.40;;;;;;5071059;28;20372;-60
2021/01/22 01:58:34;;;;;;;1.58;0.50;;;7.80;72.40;;;;;;5073125;28;20046;-61
2021/01/22 02:01:00;;;;;;;0.85;0.30;;;7.80;72.30;;;;;;5074017;28;20507;-60
2021/01/22 02:03:26;;;;;;;1.73;0.65;;;7.80;72.20;;;;;;5071969;28;20954;-60
2021/01/22 02:05:52;;;;;;;1.13;0.70;;;7.70;72.40;;;;;;5071408;28;20468;-57
2021/01/22 02:08:18;;;;;;;1.45;0.70;;;7.80;72.50;;;;;;5060950;28;20044;-57
2021/01/22 02:10:45;;;;;;;1.17;0.82;;;7.80;72.50;;;;;;5071394;28;20602;-57
2021/01/22 02:13:13;;;;;;;1.33;0.70;;;7.80;72.40;;;;;;5072466;28;20483;-57
2021/01/22 02:15:39;;;;;;;3.47;1.40;;;7.80;72.50;;;;;;5071045;28;20496;-57
2021/01/22 02:18:06;;;;;;;1.77;0.73;;;7.80;72.40;;;;;;5073778;28;20051;-57
2021/01/22 02:21:14;;;;;;;3.00;0.90;;;7.90;72.70;;;;;;5061469;28;20036;-60
2021/01/22 02:23:43;;;;;;;2.40;0.90;;;7.90;72.10;;;;;;5064399;28;20141;-60
2021/01/22 02:26:29;;;;;;;2.92;1.13;;;7.80;71.90;;;;;;5065152;28;20032;-60
2021/01/22 02:29:15;;;;;;;1.83;0.40;;;7.80;71.60;;;;;;5070668;28;20055;-61
2021/01/22 02:31:44;;;;;;;2.97;1.15;;;7.70;71.60;;;;;;5073624;28;20131;-61
2021/01/22 02:34:14;;;;;;;1.75;1.00;;;7.70;72.00;;;;;;5074155;28;20071;-61
2021/01/22 02:36:44;;;;;;;1.83;1.17;;;7.70;72.20;;;;;;5074699;28;20033;-61
2021/01/22 02:39:13;;;;;;;1.58;0.68;;;7.80;72.50;;;;;;5072786;28;20678;-61
2021/01/22 02:41:43;;;;;;;1.80;0.63;;;7.80;72.20;;;;;;5077143;28;20044;-61
2021/01/22 02:44:10;;;;;;;2.35;0.93;;;7.80;72.10;;;;;;5072405;28;20024;-60
2021/01/22 02:46:36;;;;;;;2.17;0.95;;;7.80;72.30;;;;;;5073054;28;20070;-61
2021/01/22 02:49:02;;;;;;;1.75;0.80;;;7.80;72.20;;;;;;5072974;28;20029;-61
2021/01/22 02:51:28;;;;;;;2.65;1.38;;;7.80;72.30;;;;;;5074746;28;21944;-61
2021/01/22 02:53:54;;;;;;;3.45;1.52;;;7.80;72.40;;;;;;5073574;28;20032;-61
2021/01/22 02:56:43;;;;;;;1.80;0.65;;;7.80;72.20;;;;;;5072417;28;20033;-60
2021/01/22 02:59:40;;;;;;;2.08;0.68;;;7.80;71.90;;;;;;5071820;28;20456;-61
2021/01/22 03:02:21;;;;;;;2.08;0.80;;;7.80;71.90;;;;;;5071910;28;20036;-57
2021/01/22 03:04:47;;;;;;;2.05;0.60;;;7.80;72.30;;;;;;5074206;28;20048;-59
2021/01/22 03:07:21;;;;;;;1.52;0.60;;;7.70;72.30;;;;;;5072418;28;20039;-57
2021/01/22 03:09:51;;;;;;;4.07;0.45;;;7.80;72.30;;;;;;5071220;28;20036;-58
2021/01/22 03:12:17;;;;;;;2.95;0.60;;;7.70;72.30;;;;;;5074035;28;20044;-58
2021/01/22 03:14:44;;;;;;;2.28;0.93;;;7.70;72.40;;;;;;5074188;28;20043;-57
2021/01/22 03:17:09;;;;;;;2.03;0.50;;;7.70;72.40;;;;;;5071462;28;20068;-57
2021/01/22 03:19:46;;;;;;;2.80;0.85;;;7.70;72.50;;;;;;5071140;28;20071;-57
2021/01/22 03:22:13;;;;;;;1.40;0.90;;;7.70;72.60;;;;;;5067856;28;20039;-57
2021/01/22 03:24:39;;;;;;;2.05;1.00;;;7.70;72.80;;;;;;5074023;28;20114;-57
2021/01/22 03:27:05;;;;;;;0.75;0.45;;;7.70;72.80;;;;;;5073129;28;20040;-57
2021/01/22 03:29:31;;;;;;;2.03;0.60;;;7.70;72.80;;;;;;5071568;28;20051;-57
2021/01/22 03:31:59;;;;;;;1.63;0.63;;;7.70;72.80;;;;;;5073400;28;20044;-61
2021/01/22 03:34:26;;;;;;;2.35;0.90;;;7.70;72.90;;;;;;5074603;28;20028;-61
2021/01/22 03:36:59;;;;;;;1.88;0.70;;;7.70;72.90;;;;;;5070631;28;20118;-61
2021/01/22 03:39:25;;;;;;;;;;;7.70;73.30;;;;;;5071921;28;20484;-60
2021/01/22 03:41:52;;;;;;;2.47;0.60;;;7.60;72.60;;;;;;5073150;28;19922;-60
2021/01/22 03:44:18;;;;;;;2.92;0.98;;;7.60;72.90;;;;;;5073948;28;20085;-60
2021/01/22 03:46:44;;;;;;;2.60;0.77;;;7.60;72.90;;;;;;5073239;28;20210;-61
2021/01/22 03:49:10;;;;;;;3.88;0.90;;;7.60;73.00;;;;;;5071161;28;20029;-61
2021/01/22 03:51:36;;;;;;;2.67;0.82;;;7.70;73.00;;;;;;5071820;28;20172;-61
2021/01/22 03:54:03;;;;;;;3.97;1.05;;;7.70;72.70;;;;;;5062686;28;20102;-60
2021/01/22 03:56:29;;;;;;;2.95;0.77;;;7.70;72.90;;;;;;5071370;28;20040;-60
2021/01/22 03:58:55;;;;;;;2.10;0.75;;;7.70;72.70;;;;;;5072383;28;20408;-60
2021/01/22 04:01:22;;;;;;;1.50;0.63;;;7.60;72.70;;;;;;5071796;28;20077;-61
2021/01/22 04:03:48;;;;;;;2.30;0.90;;;7.60;72.70;;;;;;5072823;28;20087;-61
2021/01/22 04:06:14;;;;;;;2.63;1.00;;;7.60;72.70;;;;;;5072005;28;20436;-60
2021/01/22 04:08:40;;;;;;;1.75;0.65;;;7.60;72.90;;;;;;5059134;28;20055;-60
2021/01/22 04:11:07;;;;;;;3.60;0.70;;;7.50;72.80;;;;;;5072563;28;20483;-61
2021/01/22 04:13:33;;;;;;;5.18;0.80;;;7.50;72.90;;;;;;5073292;28;20062;-60
2021/01/22 04:16:00;;;;;;;1.95;0.60;;;7.40;73.10;;;;;;5072857;28;20040;-60
2021/01/22 04:18:26;;;;;;;5.70;1.25;;;7.40;73.20;;;;;;5071939;28;20068;-57
2021/01/22 04:20:51;;;;;;;1.27;0.63;;;7.40;73.40;;;;;;5071099;28;20067;-57
2021/01/22 04:23:17;;;;;;;3.40;1.10;;;7.30;73.40;;;;;;5072275;28;20036;-57
2021/01/22 04:25:43;;;;;;;3.35;1.00;;;7.30;73.40;;;;;;5072508;28;20105;-57
2021/01/22 04:28:09;;;;;;;2.25;1.00;;;7.30;73.70;;;;;;5069203;28;20131;-57
2021/01/22 04:30:34;;;;;;;2.17;0.95;;;7.20;73.80;;;;;;5072109;28;20044;-57
2021/01/22 04:33:00;;;;;;;2.60;0.93;;;7.10;73.70;;;;;;5073187;28;20044;-57
2021/01/22 04:35:26;;;;;;;3.83;1.40;;;7.10;73.70;;;;;;5071399;28;20036;-57
2021/01/22 04:37:52;;;;;;;1.83;0.80;;;7.00;73.80;;;;;;5071285;28;20041;-58
2021/01/22 04:40:19;;;;;;;3.58;1.38;;;7.00;74.00;;;;;;5070413;28;20105;-58
2021/01/22 04:42:45;;;;;;;3.13;1.00;;;7.00;74.10;;;;;;5058677;28;20510;-58
2021/01/22 04:45:12;;;;;;;3.58;1.00;;;7.00;74.10;;;;;;5071987;28;20041;-57
2021/01/22 04:47:39;;;;;;;1.33;0.90;;;7.00;74.10;;;;;;5058472;28;20036;-58
2021/01/22 04:50:06;;;;;;;4.65;1.30;;;7.00;74.10;;;;;;5071823;28;20503;-58
2021/01/22 04:52:34;;;;;;;6.88;1.92;;;6.90;74.10;;;;;;5071145;28;20033;-58
2021/01/22 04:55:02;;;;;;;2.38;0.73;;;6.90;74.00;;;;;;5073578;28;20273;-57
2021/01/22 04:57:30;;;;;;;5.15;1.80;;;6.90;74.00;;;;;;5070632;28;20066;-60
2021/01/22 04:59:56;;;;;;;5.20;1.30;;;6.90;74.10;;;;;;5071074;28;20134;-61
2021/01/22 05:02:22;;;;;;;2.53;1.10;;;6.90;74.20;;;;;;5070800;28;20480;-61
2021/01/22 05:04:49;;;;;;;4.32;1.20;;;6.90;74.30;;;;;;5071551;28;20034;-60
2021/01/22 05:07:15;;;;;;;6.97;1.25;;;6.90;74.30;;;;;;5059197;28;20050;-61
2021/01/22 05:09:41;;;;;;;5.72;1.45;;;6.90;74.20;;;;;;5072298;28;20476;-61
2021/01/22 05:12:08;;;;;;;3.75;1.10;;;6.90;74.20;;;;;;5071363;28;20041;-61
2021/01/22 05:14:36;;;;;;;5.15;1.08;;;7.00;74.20;;;;;;5071373;28;20036;-61
2021/01/22 05:17:10;;;;;;;2.65;0.80;;;6.90;74.20;;;;;;5069539;28;20040;-61
2021/01/22 05:19:41;;;;;;;4.25;1.00;;;6.90;74.40;;;;;;5057399;28;20048;-61
2021/01/22 05:22:12;;;;;;;3.95;1.50;;;6.80;74.40;;;;;;5070627;28;20048;-60
2021/01/22 05:24:38;;;;;;;6.15;1.65;;;6.80;74.50;;;;;;5071819;28;22302;-61
2021/01/22 05:27:05;;;;;;;3.00;1.20;;;6.90;74.60;;;;;;5072828;28;20036;-61
2021/01/22 05:29:32;;;;;;;4.43;1.55;;;6.80;74.50;;;;;;5074193;28;20403;-61
2021/01/22 05:31:59;;;;;;;5.68;1.50;;;6.80;74.60;;;;;;5074727;28;20040;-61
2021/01/22 05:34:44;;;;;;;3.92;1.42;;;6.80;75.10;;;;;;5077695;28;20040;-59
2021/01/22 05:37:09;;;;;;;7.15;2.03;;;6.90;74.90;;;;;;5061126;28;20159;-57
2021/01/22 05:39:35;;;;;;;5.68;2.17;;;7.00;74.80;;;;;;5074970;28;20123;-57
2021/01/22 05:42:01;;;;;;;5.57;1.73;;;7.00;74.50;;;;;;5074386;28;20107;-57
2021/01/22 05:44:27;;;;;;;3.35;1.50;;;7.00;74.40;;;;;;5061835;28;20044;-57
2021/01/22 05:47:10;;;;;;;3.88;1.25;;;7.00;74.40;;;;;;5075696;28;20044;-57
2021/01/22 05:49:58;;;;;;;5.40;1.00;;;7.00;74.50;;;;;;5072777;28;20115;-57
2021/01/22 05:52:24;;;;;;;7.05;1.33;;;7.10;74.60;;;;;;5074604;28;20048;-58
2021/01/22 05:54:51;;;;;;;5.65;1.10;;;7.10;74.40;;;;;;5076130;28;20039;-58
2021/01/22 05:57:17;;;;;;;3.65;1.08;;;7.10;74.40;;;;;;5073645;28;20059;-58
2021/01/22 05:59:43;;;;;;;5.70;1.67;;;7.10;74.30;;;;;;5073426;28;20067;-58
2021/01/22 06:02:25;;;;;;;6.03;1.23;;;7.10;74.30;;;;;;5056195;28;20135;-57
2021/01/22 06:05:11;;;;;;;9.07;1.45;;;7.20;74.10;;;;;;5075649;28;20192;-58
2021/01/22 06:07:39;;;;;;;6.15;1.63;;;7.10;74.00;;;;;;5072645;28;20994;-57
2021/01/22 06:10:22;;;;;;;5.85;1.42;;;7.10;74.20;;;;;;5075279;28;20035;-58
2021/01/22 06:12:55;;;;;;;3.67;1.40;;;7.30;74.20;;;;;;5075909;28;20059;-57
2021/01/22 06:15:22;;;;;;;6.25;1.50;;;7.30;74.10;;;;;;5074787;28;20542;-57
2021/01/22 06:17:50;;;;;;;9.93;2.08;;;7.20;73.90;;;;;;5073081;28;20037;-57
2021/01/22 06:20:19;;;;;;;6.80;1.55;;;7.30;74.00;;;;;;5073160;28;20041;-57
2021/01/22 06:23:05;;;;;;;5.75;1.73;;;7.20;73.90;;;;;;5073166;28;20115;-57
2021/01/22 06:25:31;;;;;;;7.43;1.80;;;7.20;73.90;;;;;;5074112;28;20040;-58
2021/01/22 06:28:00;;;;;;;11.30;2.10;;;7.10;74.10;;;;;;5071332;28;20043;-57
2021/01/22 06:30:27;;;;;;;6.38;1.98;;;7.10;74.10;;;;;;5074271;28;20039;-57
2021/01/22 06:32:55;;;;;;;4.88;1.67;;;7.10;74.10;;;;;;5074962;28;20044;-57
2021/01/22 06:35:23;;;;;;;7.78;1.73;;;7.10;74.30;;;;;;5072987;28;20044;-57
2021/01/22 06:37:50;;;;;;;5.22;1.92;;;7.00;74.50;;;;;;5070483;28;20036;-60
2021/01/22 06:40:19;;;;;;;12.00;2.33;;;7.00;74.60;;;;;;5073909;28;20032;-62
2021/01/22 06:42:46;;;;;;;6.05;2.00;;;6.90;74.60;;;;;;5074487;28;20041;-61
2021/01/22 06:45:12;;;;;;;10.30;2.63;;;6.90;74.60;;;;;;5073536;28;20071;-61
2021/01/22 06:47:38;;;;;;;6.35;2.53;;;6.80;74.60;;;;;;5072778;28;20311;-60
2021/01/22 06:50:19;;;;;;;6.03;3.10;;;6.80;74.80;;;;;;5073727;28;20041;-60
2021/01/22 06:53:06;;;;;;;10.77;3.60;;;6.70;74.90;;;;;;5075890;28;20044;-61
2021/01/22 06:55:32;;;;;;;7.32;3.05;;;6.70;75.20;;;;;;5072237;28;20036;-61
2021/01/22 06:58:30;;;;;;;9.85;3.65;;;6.60;75.10;;;;;;5071084;28;20032;-61
2021/01/22 07:00:58;;;;;;;6.53;3.40;;;6.70;75.30;;;;;;5071417;28;20534;-64
2021/01/22 07:03:36;;;;;;;11.82;4.28;;;6.70;75.10;;;;;;5072596;28;20037;-61
2021/01/22 07:06:06;;;;;;;10.80;4.28;;;6.70;75.00;;;;;;5057320;28;20475;-63
2021/01/22 07:08:58;;;;;;;7.95;4.07;;;6.70;74.80;;;;;;5071882;28;20094;-64
2021/01/22 07:11:24;;;;;;;11.52;4.13;;;6.70;75.00;;;;;;5070836;28;20174;-66
2021/01/22 07:13:50;;;;;;;9.27;4.15;;;6.60;75.00;;;;;;5072936;28;20040;-67
2021/01/22 07:16:16;;;;;;;11.23;4.50;;;6.60;75.20;;;;;;5063516;28;20032;-67
2021/01/22 07:18:54;;;;;;;9.70;3.92;;;6.60;75.30;;;;;;5073115;28;20033;-62
2021/01/22 07:21:22;;;;;;;14.30;4.80;;;6.50;75.40;;;;;;5057526;28;20043;-59
2021/01/22 07:23:55;;;;;;;11.07;4.97;;;6.50;75.50;;;;;;5072504;28;20088;-59
2021/01/22 07:26:22;;;;;;;8.10;4.55;;;6.60;75.60;;;;;;5065716;28;20476;-59
2021/01/22 07:28:52;;;;;;;11.45;4.53;;;6.60;75.60;;;;;;5071731;28;20862;-59
2021/01/22 07:31:56;;;;;;;13.43;4.65;;;6.60;75.50;;;;;;5070103;28;20047;-59
2021/01/22 07:34:37;;;;;;;10.50;3.58;;;6.60;75.60;;;;;;5074128;28;20119;-59
2021/01/22 07:37:05;;;;;;;10.48;4.35;;;6.50;75.50;;;;;;5070942;28;20052;-59
2021/01/22 07:39:31;;;;;;;8.77;4.18;;;6.40;75.60;;;;;;5072544;28;20480;-59
2021/01/22 07:42:27;;;;;;;11.70;4.82;;;6.40;75.80;;;;;;5072120;28;20032;-59
2021/01/22 07:44:54;;;;;;;10.07;4.25;;;6.40;76.00;;;;;;5065615;28;20048;-62
2021/01/22 07:47:40;;;;;;;9.82;3.83;;;6.30;75.90;;;;;;5070415;28;20037;-62
2021/01/22 07:50:09;;;;;;;13.90;3.83;;;6.40;76.10;;;;;;5070572;28;20063;-62
2021/01/22 07:52:40;;;;;;;10.90;3.35;;;6.50;76.00;;;;;;5071496;28;20044;-62
2021/01/22 07:55:17;;;;;;;11.15;3.70;;;6.50;76.00;;;;;;5068796;28;20733;-61
2021/01/22 07:57:44;;;;;;;11.18;3.75;;;6.60;75.70;;;;;;5072157;28;20114;-62
2021/01/22 08:00:12;;;;;;;12.93;3.83;;;6.50;75.60;;;;;;5073351;28;20070;-58
2021/01/22 08:02:38;;;;;;;11.35;3.17;;;6.50;75.60;;;;;;5071030;28;20036;-58
2021/01/22 08:05:31;;;;;;;7.60;3.47;;;6.60;75.70;;;;;;5072097;28;20067;-58
2021/01/22 08:07:56;;;;;;;12.07;3.05;;;6.70;75.50;;;;;;5068781;28;20071;-61
2021/01/22 08:10:27;;;;;;;15.43;4.05;;;6.70;75.50;;;;;;5070813;28;20492;-58
2021/01/22 08:13:03;;;;;;;10.45;3.20;;;6.90;75.50;;;;;;5071032;28;20106;-62
2021/01/22 08:15:29;;;;;;;11.07;2.83;;;7.00;74.90;;;;;;5061010;28;20036;-64
2021/01/22 08:17:57;;;;;;;7.88;2.88;;;7.00;74.70;;;;;;5058801;28;20040;-63
2021/01/22 08:20:22;;;;;;;10.05;2.90;;;6.90;74.70;;;;;;5075824;28;20031;-61
2021/01/22 08:22:57;;;;;;;14.07;3.25;;;6.90;74.60;;;;;;5072604;28;20358;-61
2021/01/22 08:25:35;;;;;;;9.85;2.50;;;6.90;74.70;;;;;;5071371;28;20059;-61
2021/01/22 08:28:02;;;;;;;7.15;2.65;;;7.30;74.30;;;;;;5071864;28;20792;-61
2021/01/22 08:30:29;;;;;;;8.13;2.50;;;7.30;73.90;;;;;;5072641;28;20101;-61
2021/01/22 08:32:57;;;;;;;9.05;2.75;;;7.20;73.90;;;;;;5058706;28;20876;-61
2021/01/22 08:35:27;;;;;;;10.00;2.55;;;7.20;73.80;;;;;;5072106;28;20066;-60
2021/01/22 08:37:55;;;;;;;11.73;2.88;;;7.40;73.80;;;;;;5058062;28;20040;-62
2021/01/22 08:40:21;;;;;;;8.85;2.78;;;7.40;73.90;;;;;;5069660;28;20036;-61
2021/01/22 08:42:57;;;;;;;11.07;2.33;;;7.50;74.00;;;;;;5068507;28;20128;-65
2021/01/22 08:45:23;;;;;;;12.40;2.65;;;7.40;73.20;;;;;;5070134;28;20036;-66
2021/01/22 08:47:49;;;;;;;13.73;2.83;;;7.40;73.40;;;;;;5069386;28;20040;-66
2021/01/22 08:50:18;;;;;;;7.30;2.45;;;7.40;74.10;;;;;;5071921;28;20025;-62
2021/01/22 08:52:44;;;;;;;12.57;2.63;;;7.50;73.60;;;;;;5073007;28;20415;-62
2021/01/22 08:55:20;;;;;;;9.13;2.50;;;7.60;73.50;;;;;;5071206;28;20048;-62
2021/01/22 08:58:18;;;;;;;6.32;1.90;;;7.70;73.00;;;;;;5071600;28;20051;-61
2021/01/22 09:00:53;;;;;;;11.05;3.10;;;7.80;72.50;;;;;;5049160;28;20057;-69
2021/01/22 09:03:20;;;;;;;12.02;2.70;;;8.20;73.00;;;;;;5075493;28;20115;-68
2021/01/22 09:05:53;;;;;;;9.10;2.42;;;8.60;72.30;;;;;;5073803;28;20157;-68
2021/01/22 09:08:20;;;;;;;12.98;3.72;;;8.90;71.10;;;;;;5073850;28;20055;-67
2021/01/22 09:10:46;;;;;;;11.68;2.45;;;9.00;70.40;;;;;;5075105;28;20040;-65
2021/01/22 09:13:25;;;;;;;15.38;2.30;;;9.20;70.10;;;;;;5077333;28;20123;-65
2021/01/22 09:16:11;;;;;;;15.82;3.33;;;9.40;69.50;;;;;;5073763;28;20043;-67
2021/01/22 09:18:38;;;;;;;9.80;2.72;;;9.60;69.00;;;;;;5073750;28;20044;-67
2021/01/22 09:21:05;;;;;;;10.57;2.35;;;9.80;68.80;;;;;;5073721;28;20060;-67
2021/01/22 09:23:32;;;;;;;13.40;2.65;;;10.00;68.40;;;;;;5075097;28;20402;-67
2021/01/22 09:26:00;;;;;;;11.18;2.58;;;10.10;67.70;;;;;;5073804;28;20028;-67
2021/01/22 09:28:26;;;;;;;16.27;2.85;;;10.20;67.40;;;;;;5074194;28;20052;-66
2021/01/22 09:30:52;;;;;;;11.10;2.40;;;10.30;67.00;;;;;;5074309;28;20083;-67
2021/01/22 09:33:18;;;;;;;10.77;2.60;;;10.40;66.70;;;;;;5076795;28;20040;-65
2021/01/22 09:35:44;;;;;;;10.23;2.58;;;10.40;66.40;;;;;;5072826;28;20040;-64
2021/01/22 09:38:10;;;;;;;9.45;2.55;;;10.50;66.30;;;;;;5073810;28;20033;-65
2021/01/22 09:40:36;;;;;;;16.17;2.88;;;10.60;66.10;;;;;;5074152;28;20086;-66
2021/01/22 09:43:03;;;;;;;8.90;2.30;;;10.70;65.60;;;;;;5073617;28;20519;-65
2021/01/22 09:45:28;;;;;;;9.48;2.58;;;10.60;65.50;;;;;;5074308;28;20108;-65
2021/01/22 09:47:54;;;;;;;11.60;3.20;;;10.50;65.60;;;;;;5072125;28;20460;-65
2021/01/22 09:50:20;;;;;;;8.10;2.60;;;10.40;65.60;;;;;;5074447;28;20111;-66
2021/01/22 09:52:46;;;;;;;8.25;2.17;;;10.40;65.80;;;;;;5074897;28;20029;-65
2021/01/22 09:55:16;;;;;;;9.55;2.40;;;10.40;65.90;;;;;;5073052;28;20065;-65
2021/01/22 09:57:43;;;;;;;10.80;2.90;;;10.40;65.90;;;;;;5072058;28;20035;-66
2021/01/22 10:00:11;;;;;;;9.55;2.58;;;10.50;65.80;;;;;;5074389;28;20064;-66
2021/01/22 10:02:37;;;;;;;10.48;2.38;;;10.50;65.90;;;;;;5072725;28;20040;-66
2021/01/22 10:05:05;;;;;;;12.50;2.38;;;10.60;65.70;;;;;;5073179;28;20044;-66
2021/01/22 10:07:30;;;;;;;8.40;2.10;;;10.50;65.60;;;;;;5072414;28;20035;-66
2021/01/22 10:09:56;;;;;;;10.88;2.45;;;10.50;65.60;;;;;;5074223;28;20044;-66
2021/01/22 10:12:22;;;;;;;14.07;2.25;;;10.50;65.90;;;;;;5074068;28;20045;-66
2021/01/22 10:14:48;;;;;;;8.00;2.67;;;10.50;65.40;;;;;;5071829;28;20116;-66
2021/01/22 10:17:14;;;;;;;13.93;2.85;;;10.50;65.10;;;;;;5073203;28;20123;-66
2021/01/22 10:19:40;;;;;;;8.80;2.42;;;10.50;65.20;;;;;;5072271;28;20479;-66
2021/01/22 10:22:05;;;;;;;11.48;2.55;;;10.50;64.90;;;;;;5073315;28;20070;-66
2021/01/22 10:24:31;;;;;;;10.85;2.42;;;10.60;64.90;;;;;;5074040;28;20032;-66
2021/01/22 10:26:57;;;;;;;13.82;2.45;;;10.60;64.70;;;;;;5073985;28;20051;-66
2021/01/22 10:29:23;;;;;;;10.88;2.10;;;10.70;64.60;;;;;;5073068;28;20131;-65
2021/01/22 10:31:49;;;;;;;12.20;2.53;;;10.60;64.40;;;;;;5062206;28;20036;-68
2021/01/22 10:34:15;;;;;;;12.07;2.40;;;10.50;64.40;;;;;;5075246;28;20040;-67
2021/01/22 10:36:41;;;;;;;10.98;3.08;;;10.40;64.50;;;;;;5072758;28;20036;-67
2021/01/22 10:39:07;;;;;;;9.98;2.22;;;10.20;64.80;;;;;;5073093;28;20067;-72
2021/01/22 10:41:34;;;;;;;10.77;3.10;;;10.10;65.00;;;;;;5072289;28;20904;-71
2021/01/22 10:44:00;;;;;;;13.70;2.55;;;10.00;66.10;;;;;;5072678;28;20123;-73
2021/01/22 10:46:28;;;;;;;10.88;3.05;;;9.90;65.80;;;;;;5072334;28;20032;-67
2021/01/22 10:48:54;;;;;;;13.43;2.80;;;9.90;66.00;;;;;;5074021;28;20040;-72
2021/01/22 10:51:20;;;;;;;7.60;2.45;;;9.80;66.10;;;;;;5073060;28;20045;-65
2021/01/22 10:53:46;;;;;;;10.85;2.58;;;9.80;66.20;;;;;;5074085;28;20487;-65
2021/01/22 10:56:11;;;;;;;9.05;2.92;;;9.80;66.20;;;;;;5071851;28;20170;-66
2021/01/22 10:58:40;;;;;;;10.73;2.42;;;9.80;66.30;;;;;;5073286;28;20076;-65
2021/01/22 11:01:06;;;;;;;16.00;2.92;;;9.70;66.40;;;;;;5071996;28;20028;-61
2021/01/22 11:03:33;;;;;;;12.82;2.97;;;9.80;66.30;;;;;;5074450;28;20047;-62
2021/01/22 11:05:58;;;;;;;13.32;2.50;;;9.90;66.30;;;;;;5072244;28;20040;-61
2021/01/22 11:08:24;;;;;;;8.18;3.00;;;10.00;66.00;;;;;;5072468;28;20044;-61
2021/01/22 11:10:50;;;;;;;13.75;2.60;;;10.00;65.90;;;;;;5073101;28;20048;-61
2021/01/22 11:13:16;;;;;;;13.60;2.65;;;9.80;65.40;;;;;;5075753;28;20457;-61
2021/01/22 11:15:43;;;;;;;12.52;2.70;;;9.70;65.90;;;;;;5070966;28;20039;-62
2021/01/22 11:18:10;;;;;;;12.82;3.70;;;9.60;66.40;;;;;;5071719;28;20074;-61
2021/01/22 11:20:36;;;;;;;12.57;2.90;;;9.40;66.30;;;;;;5071861;28;20067;-61
2021/01/22 11:23:03;;;;;;;8.15;2.40;;;9.30;66.50;;;;;;5073712;28;20041;-61
2021/01/22 11:25:28;;;;;;;12.23;3.00;;;9.30;66.90;;;;;;5072195;28;20113;-61
2021/01/22 11:27:54;;;;;;;13.98;3.38;;;9.40;67.00;;;;;;5059543;28;20812;-58
2021/01/22 11:30:21;;;;;;;12.68;2.80;;;9.40;66.90;;;;;;5071999;28;20070;-58
2021/01/22 11:32:46;;;;;;;11.82;2.50;;;9.30;66.90;;;;;;5059957;28;20571;-58
2021/01/22 11:35:13;;;;;;;12.05;3.00;;;9.20;67.20;;;;;;5071354;28;20051;-61
2021/01/22 11:37:40;;;;;;;9.05;2.90;;;9.10;67.50;;;;;;5071869;28;20039;-58
2021/01/22 11:40:08;;;;;;;10.85;2.17;;;9.00;67.70;;;;;;5070027;28;20040;-58
2021/01/22 11:42:34;;;;;;;16.13;3.22;;;9.00;68.10;;;;;;5072757;28;20085;-58
2021/01/22 11:45:00;;;;;;;7.78;2.28;;;9.00;67.90;;;;;;5071500;28;20092;-59
2021/01/22 11:47:26;;;;;;;10.43;2.42;;;9.00;67.90;;;;;;5058960;28;20432;-59
2021/01/22 11:49:52;;;;;;;13.80;3.50;;;9.10;68.10;;;;;;5072412;28;20425;-58
2021/01/22 11:52:18;;;;;;;10.18;2.50;;;9.20;68.10;;;;;;5074188;28;20045;-61
2021/01/22 11:54:44;;;;;;;15.23;2.40;;;9.20;67.90;;;;;;5069718;28;20043;-58
2021/01/22 11:57:10;;;;;;;14.00;3.28;;;9.10;67.90;;;;;;5071503;28;20047;-58
2021/01/22 11:59:35;;;;;;;13.48;2.88;;;9.20;68.00;;;;;;5071413;28;20040;-58
2021/01/22 12:02:01;;;;;;;12.88;2.78;;;9.30;67.50;;;;;;5071784;28;20033;-57
2021/01/22 12:04:27;;;;;;;10.07;2.30;;;9.30;67.10;;;;;;5071866;28;20055;-57
2021/01/22 12:06:54;;;;;;;10.18;2.50;;;9.30;66.50;;;;;;5069722;28;20044;-57
2021/01/22 12:09:20;;;;;;;12.20;2.72;;;9.20;66.20;;;;;;5071878;28;20043;-58
2021/01/22 12:11:46;;;;;;;11.10;2.88;;;9.20;66.90;;;;;;5073563;28;20492;-57
2021/01/22 12:14:12;;;;;;;17.20;3.33;;;9.20;67.20;;;;;;5071075;28;20510;-58
2021/01/22 12:16:38;;;;;;;12.98;2.63;;;9.20;67.40;;;;;;5070770;28;20127;-59
2021/01/22 12:19:04;;;;;;;11.63;2.67;;;9.20;67.10;;;;;;5071655;28;20484;-59
2021/01/22 12:21:30;;;;;;;12.90;3.20;;;9.20;66.90;;;;;;5070982;28;20480;-59
2021/01/22 12:23:56;;;;;;;15.27;3.17;;;9.20;66.70;;;;;;5070376;28;20037;-59
2021/01/22 12:26:22;;;;;;;11.75;2.80;;;9.20;66.30;;;;;;5069318;28;20046;-60
2021/01/22 12:28:49;;;;;;;13.02;2.40;;;9.30;66.40;;;;;;5057773;28;20048;-61
2021/01/22 12:31:15;;;;;;;15.23;2.60;;;9.40;66.20;;;;;;5071813;28;20060;-61
2021/01/22 12:33:41;;;;;;;14.35;2.78;;;9.60;65.90;;;;;;5072607;28;20142;-61
2021/01/22 12:36:07;;;;;;;13.45;2.70;;;9.70;65.50;;;;;;5070142;28;20032;-61
2021/01/22 12:38:34;;;;;;;11.73;2.85;;;9.70;65.00;;;;;;5058234;28;20124;-61
2021/01/22 12:41:05;;;;;;;14.15;2.70;;;9.60;64.60;;;;;;5057796;28;20051;-62
2021/01/22 12:43:33;;;;;;;12.55;2.22;;;9.60;65.50;;;;;;5072045;28;20036;-62
2021/01/22 12:46:02;;;;;;;15.25;3.78;;;9.50;65.10;;;;;;5071161;28;20115;-62
2021/01/22 12:48:28;;;;;;;13.35;2.65;;;9.50;65.30;;;;;;5070843;28;20127;-62
2021/01/22 12:50:54;;;;;;;14.88;2.53;;;9.50;65.30;;;;;;5071481;28;20083;-63
2021/01/22 12:53:19;;;;;;;15.52;3.05;;;9.60;65.30;;;;;;5073680;28;20079;-61
2021/01/22 12:55:45;;;;;;;9.52;2.53;;;9.80;65.00;;;;;;5069777;28;20024;-62
2021/01/22 12:58:12;;;;;;;12.10;2.97;;;10.10;65.10;;;;;;5069912;28;20573;-63
2021/01/22 13:00:38;;;;;;;16.58;3.20;;;10.20;64.10;;;;;;5070773;28;20344;-63